createdAt,value
2018-12-18T00:01:10.672Z,95231.25
2018-12-18T00:03:39.601Z,95227.70
2018-12-18T00:06:08.570Z,95232.73
2018-12-18T00:08:37.333Z,95235.08
2018-12-18T00:11:08.111Z,95232.39
2018-12-18T00:13:36.864Z,95237.08
2018-12-18T00:16:06.113Z,95233.92
2018-12-18T00:18:34.865Z,95238.84
2018-12-18T00:21:03.637Z,95237.78
2018-12-18T00:23:32.335Z,95240.95
2018-12-18T00:26:01.117Z,95240.24
2018-12-18T00:28:29.890Z,95245.05
2018-12-18T00:30:58.690Z,95244.80
2018-12-18T00:33:27.421Z,95251.24
2018-12-18T00:35:56.229Z,95251.72
2018-12-18T00:38:24.962Z,95260.12
2018-12-18T00:40:53.757Z,95260.95
2018-12-18T00:43:22.469Z,95254.97
2018-12-18T00:45:51.817Z,95257.67
2018-12-18T00:48:20.600Z,95253.69
2018-12-18T00:50:49.420Z,95263.52
2018-12-18T00:53:18.137Z,95268.54
2018-12-18T00:55:46.899Z,95273.70
2018-12-18T00:58:15.612Z,95277.77
2018-12-18T01:00:44.372Z,95283.05
2018-12-18T01:03:13.137Z,95276.50
2018-12-18T01:05:42.370Z,95277.28
2018-12-18T01:08:11.075Z,95275.77
2018-12-18T01:10:39.840Z,95276.36
2018-12-18T01:13:08.757Z,95280.78
2018-12-18T01:15:37.453Z,95278.94
2018-12-18T01:18:06.146Z,95276.01
2018-12-18T01:20:34.827Z,95282.33
2018-12-18T01:23:03.590Z,95279.85
2018-12-18T01:25:32.305Z,95283.83
2018-12-18T01:28:00.987Z,95280.89
2018-12-18T01:30:29.766Z,95279.95
2018-12-18T01:32:58.489Z,95282.68
2018-12-18T01:35:27.182Z,95284.17
2018-12-18T01:37:55.906Z,95284.53
2018-12-18T01:40:24.659Z,95284.44
2018-12-18T01:42:53.351Z,95283.02
2018-12-18T01:45:22.744Z,95282.67
2018-12-18T01:47:51.528Z,95290.77
2018-12-18T01:50:20.229Z,95291.58
2018-12-18T01:52:48.981Z,95287.72
2018-12-18T01:55:17.764Z,95289.70
2018-12-18T01:57:46.535Z,95290.98
2018-12-18T02:00:15.437Z,95291.70
2018-12-18T02:02:44.263Z,95286.20
2018-12-18T02:05:13.483Z,95292.39
2018-12-18T02:07:42.233Z,95284.58
2018-12-18T02:10:11.053Z,95289.70
2018-12-18T02:12:39.772Z,95292.74
2018-12-18T02:15:08.935Z,95287.61
2018-12-18T02:17:37.671Z,95288.75
2018-12-18T02:20:07.871Z,95283.98
2018-12-18T02:22:37.123Z,95286.33
2018-12-18T02:25:07.448Z,95284.80
2018-12-18T02:27:36.152Z,95283.50
2018-12-18T02:30:09.295Z,95285.39
2018-12-18T02:32:37.940Z,95284.92
2018-12-18T02:35:07.364Z,95288.54
2018-12-18T02:37:36.109Z,95287.73
2018-12-18T02:40:05.671Z,95283.51
2018-12-18T02:42:34.409Z,95285.97
2018-12-18T02:45:03.183Z,95289.25
2018-12-18T02:47:31.939Z,95282.33
2018-12-18T02:50:01.131Z,95286.67
2018-12-18T02:52:29.944Z,95274.38
2018-12-18T02:54:58.738Z,95271.70
2018-12-18T02:57:27.472Z,95279.08
2018-12-18T02:59:56.220Z,95275.92
2018-12-18T03:02:24.975Z,95281.86
2018-12-18T03:04:53.793Z,95274.05
2018-12-18T03:07:22.603Z,95278.35
2018-12-18T03:09:51.365Z,95279.66
2018-12-18T03:12:21.235Z,95283.41
2018-12-18T03:14:50.021Z,95277.31
2018-12-18T03:17:19.245Z,95282.81
2018-12-18T03:19:47.983Z,95287.83
2018-12-18T03:22:16.747Z,95290.75
2018-12-18T03:24:45.567Z,95294.02
2018-12-18T03:27:14.254Z,95297.64
2018-12-18T03:29:43.019Z,95302.21
2018-12-18T03:32:16.964Z,95311.93
2018-12-18T03:34:45.989Z,95311.67
2018-12-18T03:37:14.729Z,95311.56
2018-12-18T03:39:43.487Z,95325.47
2018-12-18T03:42:12.215Z,95323.00
2018-12-18T03:44:41.017Z,95320.32
2018-12-18T03:47:09.775Z,95324.78
2018-12-18T03:49:38.449Z,95317.08
2018-12-18T03:52:07.888Z,95321.52
2018-12-18T03:54:36.595Z,95321.64
2018-12-18T03:57:05.328Z,95324.31
2018-12-18T03:59:34.036Z,95325.86
2018-12-18T04:02:02.762Z,95326.08
2018-12-18T04:04:35.532Z,95331.81
2018-12-18T04:07:03.088Z,95334.38
2018-12-18T04:09:31.842Z,95336.72
2018-12-18T04:12:15.580Z,95346.88
2018-12-18T04:14:44.420Z,95349.47
2018-12-18T04:17:13.192Z,95348.55
2018-12-18T04:19:41.909Z,95356.72
2018-12-18T04:22:10.654Z,95359.16
2018-12-18T04:24:39.442Z,95369.94
2018-12-18T04:27:08.246Z,95376.13
2018-12-18T04:29:36.947Z,95380.20
2018-12-18T04:32:05.764Z,95378.45
2018-12-18T04:34:42.643Z,95385.48
2018-12-18T04:37:06.209Z,95387.34
2018-12-18T04:39:34.932Z,95384.19
2018-12-18T04:42:03.685Z,95382.55
2018-12-18T04:44:32.454Z,95383.14
2018-12-18T04:47:01.306Z,95387.83
2018-12-18T04:49:30.049Z,95390.63
2018-12-18T04:51:58.774Z,95392.27
2018-12-18T04:54:27.524Z,95393.20
2018-12-18T04:56:56.970Z,95401.84
2018-12-18T04:59:25.721Z,95402.09
2018-12-18T05:01:55.028Z,95406.99
2018-12-18T05:04:23.740Z,95409.34
2018-12-18T05:06:52.466Z,95413.70
2018-12-18T05:09:21.319Z,95414.76
2018-12-18T05:11:50.018Z,95413.20
2018-12-18T05:14:18.778Z,95420.00
2018-12-18T05:16:47.584Z,95421.86
2018-12-18T05:19:16.315Z,95418.38
2018-12-18T05:21:45.019Z,95422.11
2018-12-18T05:24:13.872Z,95422.57
2018-12-18T05:26:42.644Z,95423.14
2018-12-18T05:29:12.606Z,95426.42
2018-12-18T05:31:41.402Z,95435.08
2018-12-18T05:34:10.119Z,95421.50
2018-12-18T05:36:38.933Z,95427.94
2018-12-18T05:39:08.019Z,95430.05
2018-12-18T05:41:37.284Z,95432.94
2018-12-18T05:44:05.938Z,95427.25
2018-12-18T05:46:34.685Z,95431.33
2018-12-18T05:49:03.414Z,95435.30
2018-12-18T05:51:32.066Z,95432.15
2018-12-18T05:54:00.704Z,95435.87
2018-12-18T05:56:29.377Z,95439.62
2018-12-18T05:58:58.200Z,95439.51
2018-12-18T06:01:26.880Z,95443.73
2018-12-18T06:03:55.577Z,95445.72
2018-12-18T06:06:24.293Z,95454.41
2018-12-18T06:08:53.017Z,95451.69
2018-12-18T06:11:21.738Z,95446.80
2018-12-18T06:13:50.487Z,95455.80
2018-12-18T06:16:19.216Z,95450.66
2018-12-18T06:18:47.940Z,95457.66
2018-12-18T06:21:17.414Z,95456.66
2018-12-18T06:23:46.157Z,95461.09
2018-12-18T06:26:14.954Z,95459.37
2018-12-18T06:28:43.712Z,95459.63
2018-12-18T06:31:12.416Z,95465.48
2018-12-18T06:33:41.071Z,95465.37
2018-12-18T06:36:09.815Z,95471.20
2018-12-18T06:38:38.610Z,95468.88
2018-12-18T06:41:07.339Z,95465.13
2018-12-18T06:43:36.039Z,95464.98
2018-12-18T06:46:04.789Z,95473.67
2018-12-18T06:48:33.508Z,95472.42
2018-12-18T06:51:02.182Z,95479.06
2018-12-18T06:53:30.819Z,95476.06
2018-12-18T06:55:59.523Z,95478.74
2018-12-18T06:58:28.162Z,95478.50
2018-12-18T07:00:56.982Z,95479.64
2018-12-18T07:03:25.687Z,95483.39
2018-12-18T07:05:54.632Z,95483.61
2018-12-18T07:08:23.368Z,95488.19
2018-12-18T07:10:52.257Z,95488.65
2018-12-18T07:13:20.937Z,95486.79
2018-12-18T07:15:49.750Z,95489.25
2018-12-18T07:18:18.497Z,95489.75
2018-12-18T07:20:47.198Z,95495.47
2018-12-18T07:23:16.511Z,95497.11
2018-12-18T07:25:45.237Z,95500.52
2018-12-18T07:28:13.887Z,95504.23
2018-12-18T07:30:42.877Z,95501.88
2018-12-18T07:33:11.559Z,95503.52
2018-12-18T07:35:40.270Z,95505.44
2018-12-18T07:38:08.970Z,95515.41
2018-12-18T07:40:37.735Z,95516.69
2018-12-18T07:43:06.470Z,95512.16
2018-12-18T07:45:35.387Z,95510.77
2018-12-18T07:48:04.204Z,95511.02
2018-12-18T07:50:32.966Z,95508.30
2018-12-18T07:53:01.776Z,95517.06
2018-12-18T07:55:30.563Z,95520.70
2018-12-18T07:57:59.301Z,95520.39
2018-12-18T08:00:28.244Z,95518.95
2018-12-18T08:02:56.970Z,95522.92
2018-12-18T08:05:29.850Z,95525.48
2018-12-18T08:07:57.110Z,95527.13
2018-12-18T08:10:25.812Z,95531.53
2018-12-18T08:12:54.574Z,95521.88
2018-12-18T08:15:23.290Z,95529.08
2018-12-18T08:17:52.306Z,95537.30
2018-12-18T08:20:21.253Z,95540.48
2018-12-18T08:22:49.944Z,95533.66
2018-12-18T08:25:18.702Z,95529.45
2018-12-18T08:27:47.377Z,95540.98
2018-12-18T08:30:16.329Z,95546.84
2018-12-18T08:32:45.046Z,95541.33
2018-12-18T08:35:13.847Z,95540.05
2018-12-18T08:37:42.602Z,95547.67
2018-12-18T08:40:11.183Z,95551.08
2018-12-18T08:42:41.377Z,95548.17
2018-12-18T08:45:10.884Z,95551.84
2018-12-18T08:47:39.621Z,95555.49
2018-12-18T08:50:09.637Z,95553.28
2018-12-18T08:52:38.381Z,95555.60
2018-12-18T08:55:08.050Z,95559.75
2018-12-18T08:57:36.742Z,95557.86
2018-12-18T09:00:11.307Z,95560.17
2018-12-18T09:02:40.014Z,95559.03
2018-12-18T09:05:09.278Z,95559.16
2018-12-18T09:07:38.077Z,95558.02
2018-12-18T09:10:09.319Z,95560.48
2018-12-18T09:12:38.034Z,95558.98
2018-12-18T09:17:16.078Z,95559.66
2018-12-18T09:19:44.882Z,95554.66
2018-12-18T09:22:13.755Z,95553.12
2018-12-18T09:24:42.522Z,95549.73
2018-12-18T09:27:11.684Z,95549.36
2018-12-18T09:29:40.452Z,95550.66
2018-12-18T09:32:09.183Z,95550.86
2018-12-18T09:34:38.192Z,95551.17
2018-12-18T09:37:06.955Z,95549.22
2018-12-18T09:39:41.898Z,95542.69
2018-12-18T09:42:17.042Z,95536.51
2018-12-18T09:44:45.795Z,95537.02
2018-12-18T09:47:14.466Z,95533.41
2018-12-18T09:49:43.199Z,95534.83
2018-12-18T09:52:12.002Z,95540.95
2018-12-18T09:54:40.757Z,95544.48
2018-12-18T09:57:14.860Z,95542.25
2018-12-18T09:59:43.585Z,95538.17
2018-12-18T10:02:12.414Z,95536.52
2018-12-18T10:04:41.165Z,95534.99
2018-12-18T10:07:09.874Z,95533.01
2018-12-18T10:09:38.640Z,95530.45
2018-12-18T10:12:07.389Z,95530.22
2018-12-18T10:14:36.112Z,95527.27
2018-12-18T10:17:05.011Z,95524.68
2018-12-18T10:19:33.711Z,95518.96
2018-12-18T10:22:02.428Z,95525.17
2018-12-18T10:24:31.299Z,95520.59
2018-12-18T10:27:00.013Z,95526.34
2018-12-18T10:29:28.894Z,95522.35
2018-12-18T10:31:57.618Z,95518.36
2018-12-18T10:34:26.581Z,95519.66
2018-12-18T10:36:55.332Z,95517.20
2018-12-18T10:39:24.110Z,95508.52
2018-12-18T10:41:52.888Z,95510.42
2018-12-18T10:44:22.470Z,95513.56
2018-12-18T10:46:51.260Z,95503.98
2018-12-18T10:49:20.000Z,95499.05
2018-12-18T10:51:48.696Z,95502.67
2018-12-18T10:54:17.430Z,95506.42
2018-12-18T10:56:46.221Z,95505.95
2018-12-18T10:59:14.986Z,95502.40
2018-12-18T11:01:48.064Z,95499.72
2018-12-18T11:04:16.849Z,95505.13
2018-12-18T11:06:51.711Z,95500.30
2018-12-18T11:09:20.505Z,95504.23
2018-12-18T11:11:49.301Z,95491.83
2018-12-18T11:14:18.119Z,95488.29
2018-12-18T11:16:46.944Z,95488.18
2018-12-18T11:19:15.827Z,95486.35
2018-12-18T11:21:44.653Z,95483.11
2018-12-18T11:24:13.481Z,95486.16
2018-12-18T11:26:42.220Z,95483.58
2018-12-18T11:29:10.934Z,95476.12
2018-12-18T11:31:39.726Z,95480.20
2018-12-18T11:34:08.451Z,95472.92
2018-12-18T11:36:37.239Z,95476.44
2018-12-18T11:39:07.666Z,95477.50
2018-12-18T11:41:36.527Z,95474.33
2018-12-18T11:44:05.325Z,95477.02
2018-12-18T11:46:34.161Z,95479.63
2018-12-18T11:49:02.997Z,95475.64
2018-12-18T11:51:31.745Z,95475.16
2018-12-18T11:54:00.556Z,95480.08
2018-12-18T11:56:29.196Z,95475.16
2018-12-18T11:58:58.425Z,95486.74
2018-12-18T12:01:27.160Z,95481.13
2018-12-18T12:03:55.887Z,95478.69
2018-12-18T12:06:24.744Z,95478.80
2018-12-18T12:08:53.478Z,95481.72
2018-12-18T12:11:22.326Z,95479.38
2018-12-18T12:13:51.218Z,95480.89
2018-12-18T12:16:19.969Z,95478.57
2018-12-18T12:18:48.691Z,95480.67
2018-12-18T12:21:17.606Z,95481.26
2018-12-18T12:23:46.414Z,95466.13
2018-12-18T12:26:20.365Z,95474.23
2018-12-18T12:28:49.208Z,95476.08
2018-12-18T12:31:17.960Z,95471.73
2018-12-18T12:33:46.618Z,95482.05
2018-12-18T12:36:15.358Z,95476.66
2018-12-18T12:38:44.092Z,95478.03
2018-12-18T12:41:13.255Z,95482.50
2018-12-18T12:43:42.031Z,95489.28
2018-12-18T12:46:10.726Z,95487.53
2018-12-18T12:48:44.690Z,95495.36
2018-12-18T12:51:13.535Z,95490.46
2018-12-18T12:53:42.353Z,95488.73
2018-12-18T12:56:11.010Z,95487.89
2018-12-18T12:58:39.794Z,95490.93
2018-12-18T13:01:08.550Z,95487.42
2018-12-18T13:03:37.257Z,95487.25
2018-12-18T13:06:09.414Z,95489.50
2018-12-18T13:08:38.220Z,95491.72
2018-12-18T13:11:07.777Z,95497.25
2018-12-18T13:13:36.605Z,95485.67
2018-12-18T13:16:05.380Z,95486.84
2018-12-18T13:18:34.259Z,95484.52
2018-12-18T13:21:03.088Z,95486.48
2018-12-18T13:23:31.831Z,95486.24
2018-12-18T13:26:00.685Z,95488.95
2018-12-18T13:28:29.494Z,95490.83
2018-12-18T13:30:58.350Z,95494.11
2018-12-18T13:33:27.122Z,95497.05
2018-12-18T13:35:55.906Z,95500.91
2018-12-18T13:38:24.986Z,95488.23
2018-12-18T13:40:54.213Z,95495.83
2018-12-18T13:43:23.113Z,95488.18
2018-12-18T13:45:52.187Z,95492.61
2018-12-18T13:48:21.202Z,95492.75
2018-12-18T13:50:50.113Z,95499.29
2018-12-18T13:53:19.738Z,95506.00
2018-12-18T13:55:48.500Z,95506.11
2018-12-18T13:58:17.173Z,95508.56
2018-12-18T14:00:45.936Z,95501.41
2018-12-18T14:03:14.748Z,95509.80
2018-12-18T14:05:43.782Z,95513.24
2018-12-18T14:08:13.688Z,95510.11
2018-12-18T14:10:42.766Z,95510.58
2018-12-18T14:13:11.797Z,95513.52
2018-12-18T14:15:40.636Z,95509.39
2018-12-18T14:18:09.503Z,95511.23
2018-12-18T14:20:38.435Z,95509.13
2018-12-18T14:23:08.118Z,95514.22
2018-12-18T14:25:37.652Z,95512.62
2018-12-18T14:28:06.556Z,95513.20
2018-12-18T14:30:35.457Z,95513.70
2018-12-18T14:33:04.580Z,95514.63
2018-12-18T14:35:33.312Z,95515.19
2018-12-18T14:38:02.903Z,95514.81
2018-12-18T14:40:31.691Z,95519.25
2018-12-18T14:43:00.550Z,95521.78
2018-12-18T14:45:29.320Z,95518.94
2018-12-18T14:47:58.099Z,95519.70
2018-12-18T14:50:27.274Z,95520.56
2018-12-18T14:52:56.067Z,95522.86
2018-12-18T14:55:24.787Z,95518.06
2018-12-18T14:57:53.587Z,95521.00
2018-12-18T15:00:22.326Z,95521.45
2018-12-18T15:02:51.015Z,95524.66
2018-12-18T15:05:19.768Z,95521.88
2018-12-18T15:07:48.484Z,95520.81
2018-12-18T15:10:17.329Z,95520.59
2018-12-18T15:12:50.311Z,95516.56
2018-12-18T15:15:19.352Z,95525.73
2018-12-18T15:17:48.417Z,95527.13
2018-12-18T15:20:17.143Z,95527.08
2018-12-18T15:22:45.923Z,95528.34
2018-12-18T15:25:14.653Z,95529.28
2018-12-18T15:27:43.482Z,95528.36
2018-12-18T15:30:12.427Z,95523.34
2018-12-18T15:32:41.422Z,95526.87
2018-12-18T15:35:10.672Z,95522.69
2018-12-18T15:37:39.887Z,95525.26
2018-12-18T15:40:09.100Z,95527.47
2018-12-18T15:42:37.866Z,95525.09
2018-12-18T15:45:08.412Z,95531.11
2018-12-18T15:47:37.182Z,95528.02
2018-12-18T15:50:08.117Z,95531.88
2018-12-18T15:52:37.026Z,95535.37
2018-12-18T15:55:06.231Z,95538.82
2018-12-18T15:57:35.009Z,95537.30
2018-12-18T16:00:12.125Z,95538.01
2018-12-18T16:02:41.707Z,95544.63
2018-12-18T16:05:10.440Z,95539.64
2018-12-18T16:07:40.418Z,95549.02
2018-12-18T16:10:09.652Z,95552.67
2018-12-18T16:12:38.545Z,95553.73
2018-12-18T16:15:08.183Z,95548.83
2018-12-18T16:17:37.022Z,95551.39
2018-12-18T16:20:06.727Z,95549.87
2018-12-18T16:22:35.472Z,95565.09
2018-12-18T16:25:04.773Z,95564.25
2018-12-18T16:27:33.866Z,95552.22
2018-12-18T16:30:02.718Z,95555.44
2018-12-18T16:32:31.507Z,95557.59
2018-12-18T16:35:00.281Z,95557.36
2018-12-18T16:37:29.056Z,95563.27
2018-12-18T16:39:57.853Z,95573.66
2018-12-18T16:42:26.647Z,95573.09
2018-12-18T16:44:55.394Z,95580.52
2018-12-18T16:47:24.071Z,95573.63
2018-12-18T16:49:52.894Z,95578.10
2018-12-18T16:52:22.338Z,95580.90
2018-12-18T16:54:51.203Z,95587.42
2018-12-18T16:57:20.591Z,95585.20
2018-12-18T16:59:49.305Z,95591.79
2018-12-18T17:02:18.581Z,95592.98
2018-12-18T17:04:47.341Z,95596.48
2018-12-18T17:07:16.278Z,95594.30
2018-12-18T17:09:45.092Z,95595.72
2018-12-18T17:12:14.279Z,95597.56
2018-12-18T17:14:43.071Z,95598.34
2018-12-18T17:17:11.880Z,95595.66
2018-12-18T17:19:40.676Z,95601.91
2018-12-18T17:22:09.516Z,95604.64
2018-12-18T17:24:38.263Z,95605.73
2018-12-18T17:27:07.060Z,95609.61
2018-12-18T17:29:35.874Z,95610.70
2018-12-18T17:32:06.390Z,95606.22
2018-12-18T17:34:35.172Z,95611.49
2018-12-18T17:37:03.949Z,95614.27
2018-12-18T17:39:32.643Z,95613.60
2018-12-18T17:42:01.388Z,95611.81
2018-12-18T17:44:30.163Z,95614.17
2018-12-18T17:46:59.050Z,95614.11
2018-12-18T17:49:27.854Z,95619.52
2018-12-18T17:51:56.585Z,95619.21
2018-12-18T17:54:25.341Z,95615.20
2018-12-18T17:56:54.357Z,95623.47
2018-12-18T17:59:23.207Z,95625.77
2018-12-18T18:01:51.967Z,95624.59
2018-12-18T18:04:20.699Z,95631.73
2018-12-18T18:06:49.453Z,95627.97
2018-12-18T18:09:18.212Z,95635.69
2018-12-18T18:11:47.034Z,95635.44
2018-12-18T18:14:16.210Z,95626.13
2018-12-18T18:16:45.138Z,95630.50
2018-12-18T18:19:13.992Z,95634.62
2018-12-18T18:21:42.742Z,95635.11
2018-12-18T18:24:11.491Z,95631.84
2018-12-18T18:26:40.332Z,95632.87
2018-12-18T18:29:09.107Z,95636.05
2018-12-18T18:31:38.026Z,95632.34
2018-12-18T18:34:06.847Z,95634.05
2018-12-18T18:36:35.828Z,95637.39
2018-12-18T18:39:07.973Z,95634.83
2018-12-18T18:41:36.759Z,95635.94
2018-12-18T18:44:06.180Z,95644.73
2018-12-18T18:46:34.924Z,95646.23
2018-12-18T18:49:04.149Z,95640.73
2018-12-18T18:51:32.966Z,95642.20
2018-12-18T18:54:01.727Z,95638.76
2018-12-18T18:56:30.443Z,95652.93
2018-12-18T18:59:00.243Z,95651.04
2018-12-18T19:01:29.099Z,95644.62
2018-12-18T19:03:58.749Z,95641.19
2018-12-18T19:06:28.416Z,95643.58
2018-12-18T19:08:57.309Z,95645.08
2018-12-18T19:11:26.178Z,95647.61
2018-12-18T19:13:54.940Z,95651.78
2018-12-18T19:16:23.756Z,95652.66
2018-12-18T19:18:52.671Z,95649.13
2018-12-18T19:21:21.451Z,95654.48
2018-12-18T19:23:50.301Z,95655.40
2018-12-18T19:26:19.051Z,95660.76
2018-12-18T19:28:50.368Z,95663.66
2018-12-18T19:31:18.634Z,95660.17
2018-12-18T19:33:47.409Z,95660.03
2018-12-18T19:36:16.252Z,95656.58
2018-12-18T19:38:45.017Z,95662.18
2018-12-18T19:41:13.797Z,95662.35
2018-12-18T19:43:42.609Z,95668.36
2018-12-18T19:46:11.396Z,95676.95
2018-12-18T19:48:40.627Z,95668.52
2018-12-18T19:51:09.363Z,95662.33
2018-12-18T19:53:38.113Z,95675.58
2018-12-18T19:56:06.948Z,95670.03
2018-12-18T19:58:35.690Z,95678.19
2018-12-18T20:01:04.538Z,95669.44
2018-12-18T20:03:33.351Z,95667.19
2018-12-18T20:06:02.069Z,95668.11
2018-12-18T20:08:30.866Z,95675.72
2018-12-18T20:10:59.609Z,95675.72
2018-12-18T20:13:28.375Z,95675.22
2018-12-18T20:15:57.177Z,95662.47
2018-12-18T20:18:25.959Z,95674.34
2018-12-18T20:20:54.737Z,95676.62
2018-12-18T20:23:23.462Z,95674.05
2018-12-18T20:25:52.623Z,95671.48
2018-12-18T20:28:21.350Z,95669.20
2018-12-18T20:30:50.171Z,95675.07
2018-12-18T20:33:18.891Z,95673.18
2018-12-18T20:35:47.894Z,95678.14
2018-12-18T20:38:17.163Z,95677.91
2018-12-18T20:40:46.307Z,95678.59
2018-12-18T20:43:14.986Z,95679.30
2018-12-18T20:45:43.754Z,95673.19
2018-12-18T20:48:12.912Z,95671.61
2018-12-18T20:50:42.083Z,95663.41
2018-12-18T20:53:10.896Z,95669.38
2018-12-18T20:55:39.669Z,95668.84
2018-12-18T20:58:08.519Z,95670.59
2018-12-18T21:00:38.496Z,95679.75
2018-12-18T21:03:07.271Z,95672.73
2018-12-18T21:05:36.019Z,95666.88
2018-12-18T21:08:04.764Z,95677.88
2018-12-18T21:10:33.509Z,95667.41
2018-12-18T21:13:07.459Z,95673.61
2018-12-18T21:15:36.192Z,95670.95
2018-12-18T21:18:04.975Z,95674.34
2018-12-18T21:20:34.708Z,95677.51
2018-12-18T21:23:03.433Z,95679.02
2018-12-18T21:25:32.218Z,95671.04
2018-12-18T21:28:01.046Z,95667.47
2018-12-18T21:30:29.811Z,95659.34
2018-12-18T21:32:58.633Z,95669.20
2018-12-18T21:35:27.694Z,95660.48
2018-12-18T21:37:56.347Z,95657.52
2018-12-18T21:40:25.240Z,95662.78
2018-12-18T21:42:53.953Z,95657.27
2018-12-18T21:45:22.598Z,95657.27
2018-12-18T21:47:51.324Z,95656.68
2018-12-18T21:50:20.212Z,95651.45
2018-12-18T21:52:50.185Z,95656.83
2018-12-18T21:55:19.126Z,95644.35
2018-12-18T21:57:48.660Z,95642.13
2018-12-18T22:00:17.429Z,95642.93
2018-12-18T22:02:46.607Z,95643.58
2018-12-18T22:05:15.297Z,95647.65
2018-12-18T22:07:44.055Z,95647.50
2018-12-18T22:10:12.887Z,95646.77
2018-12-18T22:12:41.747Z,95648.52
2018-12-18T22:15:10.576Z,95651.06
2018-12-18T22:17:39.315Z,95646.70
2018-12-18T22:20:08.030Z,95650.57
2018-12-18T22:22:36.862Z,95662.13
2018-12-18T22:25:06.145Z,95651.98
2018-12-18T22:27:34.900Z,95650.06
2018-12-18T22:30:11.440Z,95655.40
2018-12-18T22:32:40.293Z,95644.89
2018-12-18T22:35:09.064Z,95649.05
2018-12-18T22:37:37.765Z,95650.77
2018-12-18T22:40:07.051Z,95656.09
2018-12-18T22:42:35.836Z,95646.92
2018-12-18T22:45:04.560Z,95645.83
2018-12-18T22:47:33.271Z,95642.26
2018-12-18T22:50:02.045Z,95643.27
2018-12-18T22:52:30.715Z,95638.05
2018-12-18T22:54:59.467Z,95638.18
2018-12-18T22:57:28.305Z,95627.64
2018-12-18T22:59:57.033Z,95623.60
2018-12-18T23:02:25.795Z,95624.44
2018-12-18T23:04:54.900Z,95617.92
2018-12-18T23:07:23.963Z,95613.48
2018-12-18T23:09:52.773Z,95612.52
2018-12-18T23:12:21.665Z,95611.97
2018-12-18T23:14:50.516Z,95609.13
2018-12-18T23:17:19.258Z,95609.55
2018-12-18T23:19:48.034Z,95608.68
2018-12-18T23:22:18.094Z,95613.20
2018-12-18T23:24:46.799Z,95610.49
2018-12-18T23:27:15.556Z,95612.58
2018-12-18T23:29:44.289Z,95610.70
2018-12-18T23:32:13.035Z,95615.65
2018-12-18T23:34:41.951Z,95612.43
2018-12-18T23:37:10.818Z,95608.02
2018-12-18T23:39:39.577Z,95608.77
2018-12-18T23:42:08.411Z,95612.58
2018-12-18T23:44:37.352Z,95614.52
2018-12-18T23:47:06.206Z,95610.61
2018-12-18T23:49:35.032Z,95608.41
2018-12-18T23:52:13.781Z,95610.30
2018-12-18T23:54:42.888Z,95609.11
2018-12-18T23:57:11.560Z,95611.75
2018-12-18T23:59:40.794Z,95603.83
